createdAt,value
2023-05-14T00:00:47.355Z,10.28
2023-05-14T00:03:14.133Z,10.27
2023-05-14T00:05:40.888Z,10.28
2023-05-14T00:08:07.626Z,10.28
2023-05-14T00:10:34.218Z,10.24
2023-05-14T00:13:01.188Z,10.26
2023-05-14T00:15:27.788Z,10.19
2023-05-14T00:17:54.339Z,10.20
2023-05-14T00:20:21.320Z,10.19
2023-05-14T00:22:47.949Z,10.19
2023-05-14T00:25:14.538Z,10.18
2023-05-14T00:27:41.163Z,10.13
2023-05-14T00:30:08.235Z,10.08
2023-05-14T00:32:35.115Z,10.13
2023-05-14T00:35:03.197Z,10.10
2023-05-14T00:37:30.115Z,10.07
2023-05-14T00:39:56.677Z,10.10
2023-05-14T00:42:23.200Z,10.12
2023-05-14T00:44:49.988Z,10.07
2023-05-14T00:47:16.826Z,10.13
2023-05-14T00:49:43.789Z,10.25
2023-05-14T00:52:11.669Z,10.40
2023-05-14T00:54:38.449Z,10.43
2023-05-14T00:57:06.675Z,10.44
2023-05-14T00:59:33.680Z,10.40
2023-05-14T01:02:00.551Z,10.35
2023-05-14T01:04:27.556Z,10.29
2023-05-14T01:07:00.226Z,10.23
2023-05-14T01:09:49.765Z,10.18
2023-05-14T01:12:40.646Z,10.14
2023-05-14T01:15:11.172Z,10.17
2023-05-14T01:17:46.309Z,10.16
2023-05-14T01:20:13.446Z,10.16
2023-05-14T01:22:40.003Z,10.10
2023-05-14T01:25:07.312Z,10.06
2023-05-14T01:27:55.267Z,10.08
2023-05-14T01:30:45.515Z,10.06
2023-05-14T01:33:14.591Z,9.98
2023-05-14T01:35:41.708Z,9.94
2023-05-14T01:38:11.670Z,9.86
2023-05-14T01:40:39.368Z,9.83
2023-05-14T01:43:06.442Z,9.75
2023-05-14T01:45:35.981Z,9.69
2023-05-14T01:48:02.666Z,9.68
2023-05-14T01:50:29.315Z,9.61
2023-05-14T01:52:56.580Z,9.54
2023-05-14T01:55:24.498Z,9.53
2023-05-14T01:57:51.996Z,9.53
2023-05-14T02:00:19.052Z,9.55
2023-05-14T02:02:45.782Z,9.55
2023-05-14T02:05:13.105Z,9.47
2023-05-14T02:07:39.684Z,9.51
2023-05-14T02:10:07.113Z,9.58
2023-05-14T02:12:33.765Z,9.67
2023-05-14T02:15:00.349Z,9.68
2023-05-14T02:17:27.080Z,9.77
2023-05-14T02:19:53.593Z,9.90
2023-05-14T02:22:20.128Z,10.08
2023-05-14T02:24:46.854Z,10.18
2023-05-14T02:27:13.477Z,10.15
2023-05-14T02:29:40.006Z,10.14
2023-05-14T02:32:06.872Z,10.07
2023-05-14T02:34:34.697Z,10.05
2023-05-14T02:37:01.286Z,9.99
2023-05-14T02:39:27.805Z,10.00
2023-05-14T02:41:54.443Z,9.98
2023-05-14T02:44:21.116Z,9.87
2023-05-14T02:46:48.250Z,9.78
2023-05-14T02:49:14.753Z,9.65
2023-05-14T02:51:41.277Z,9.57
2023-05-14T02:54:07.766Z,9.42
2023-05-14T02:56:34.281Z,9.33
2023-05-14T02:59:00.991Z,9.20
2023-05-14T03:01:28.010Z,9.18
2023-05-14T03:03:55.440Z,9.08
2023-05-14T03:06:22.097Z,9.05
2023-05-14T03:08:48.624Z,8.99
2023-05-14T03:11:15.221Z,8.98
2023-05-14T03:13:41.747Z,9.03
2023-05-14T03:16:08.289Z,9.04
2023-05-14T03:18:36.668Z,9.03
2023-05-14T03:21:04.024Z,9.08
2023-05-14T03:23:32.074Z,9.11
2023-05-14T03:25:58.899Z,9.12
2023-05-14T03:28:26.056Z,9.11
2023-05-14T03:30:52.910Z,9.11
2023-05-14T03:33:19.669Z,9.05
2023-05-14T03:35:46.211Z,9.03
2023-05-14T03:38:12.689Z,9.02
2023-05-14T03:40:39.139Z,8.98
2023-05-14T03:43:05.956Z,8.91
2023-05-14T03:45:33.466Z,8.87
2023-05-14T03:48:00.040Z,8.86
2023-05-14T03:50:26.719Z,8.81
2023-05-14T03:52:53.552Z,8.73
2023-05-14T03:55:20.474Z,8.69
2023-05-14T03:57:48.527Z,8.69
2023-05-14T04:00:15.649Z,8.72
2023-05-14T04:02:42.880Z,8.71
2023-05-14T04:05:09.691Z,8.69
2023-05-14T04:07:36.373Z,8.67
2023-05-14T04:10:04.706Z,8.77
2023-05-14T04:12:31.507Z,9.00
2023-05-14T04:14:58.629Z,9.28
2023-05-14T04:17:25.779Z,9.42
2023-05-14T04:19:52.384Z,9.52
2023-05-14T04:22:18.987Z,9.58
2023-05-14T04:24:46.118Z,9.61
2023-05-14T04:27:21.410Z,9.60
2023-05-14T04:29:49.055Z,9.57
2023-05-14T04:32:15.867Z,9.59
2023-05-14T04:34:42.448Z,9.61
2023-05-14T04:37:09.047Z,9.65
2023-05-14T04:39:35.953Z,9.68
2023-05-14T04:42:02.689Z,9.70
2023-05-14T04:44:29.359Z,9.80
2023-05-14T04:46:55.873Z,10.00
2023-05-14T04:49:22.364Z,10.22
2023-05-14T04:51:49.437Z,10.44
2023-05-14T04:54:15.976Z,10.65
2023-05-14T04:56:42.667Z,10.80
2023-05-14T04:59:09.322Z,10.95
2023-05-14T05:01:36.316Z,11.06
2023-05-14T05:04:04.304Z,11.11
2023-05-14T05:06:31.737Z,11.16
2023-05-14T05:08:59.531Z,11.23
2023-05-14T05:11:27.172Z,11.28
2023-05-14T05:13:53.853Z,11.35
2023-05-14T05:16:20.405Z,11.37
2023-05-14T05:18:47.243Z,11.44
2023-05-14T05:21:13.733Z,11.43
2023-05-14T05:23:40.318Z,11.44
2023-05-14T05:26:07.005Z,11.43
2023-05-14T05:28:33.517Z,11.46
2023-05-14T05:31:00.198Z,11.47
2023-05-14T05:33:26.855Z,11.44
2023-05-14T05:35:53.346Z,11.44
2023-05-14T05:38:19.882Z,11.52
2023-05-14T05:40:46.454Z,11.55
2023-05-14T05:43:13.938Z,11.60
2023-05-14T05:45:40.859Z,11.61
2023-05-14T05:48:07.414Z,11.58
2023-05-14T05:50:33.947Z,11.57
2023-05-14T05:53:00.544Z,11.61
2023-05-14T05:55:27.254Z,11.61
2023-05-14T05:57:53.937Z,11.63
2023-05-14T06:00:20.995Z,11.60
2023-05-14T06:02:47.827Z,11.68
2023-05-14T06:05:14.513Z,11.71
2023-05-14T06:07:41.236Z,11.78
2023-05-14T06:10:08.268Z,11.80
2023-05-14T06:12:34.808Z,11.83
2023-05-14T06:15:01.364Z,11.93
2023-05-14T06:17:27.922Z,12.01
2023-05-14T06:19:54.638Z,12.17
2023-05-14T06:22:21.261Z,12.33
2023-05-14T06:24:48.081Z,12.34
2023-05-14T06:27:14.924Z,12.38
2023-05-14T06:29:41.491Z,12.35
2023-05-14T06:32:08.551Z,12.36
2023-05-14T06:34:35.129Z,12.35
2023-05-14T06:37:04.186Z,12.33
2023-05-14T06:39:30.867Z,12.31
2023-05-14T06:41:57.521Z,12.22
2023-05-14T06:44:24.024Z,12.29
2023-05-14T06:46:50.598Z,12.31
2023-05-14T06:49:17.201Z,12.26
2023-05-14T06:51:43.769Z,12.19
2023-05-14T06:54:10.318Z,12.18
2023-05-14T06:56:36.973Z,12.22
2023-05-14T06:59:03.533Z,12.34
2023-05-14T07:01:30.591Z,12.41
2023-05-14T07:03:57.463Z,12.57
2023-05-14T07:06:24.190Z,12.56
2023-05-14T07:08:51.055Z,12.63
2023-05-14T07:11:17.660Z,12.68
2023-05-14T07:13:44.372Z,12.66
2023-05-14T07:16:10.962Z,12.66
2023-05-14T07:18:37.623Z,12.61
2023-05-14T07:21:07.559Z,12.76
2023-05-14T07:23:36.343Z,12.87
2023-05-14T07:26:03.421Z,12.84
2023-05-14T07:28:30.166Z,12.94
2023-05-14T07:30:56.946Z,13.04
2023-05-14T07:33:24.398Z,13.23
2023-05-14T07:35:51.353Z,13.41
2023-05-14T07:38:19.955Z,13.45
2023-05-14T07:40:46.520Z,13.41
2023-05-14T07:43:13.227Z,13.46
2023-05-14T07:45:40.099Z,13.55
2023-05-14T07:48:06.835Z,13.64
2023-05-14T07:50:33.600Z,13.69
2023-05-14T07:53:00.118Z,13.67
2023-05-14T07:55:26.829Z,13.81
2023-05-14T07:57:53.355Z,13.96
2023-05-14T08:00:20.277Z,14.23
2023-05-14T08:02:46.914Z,15.24
2023-05-14T08:05:13.973Z,15.31
2023-05-14T08:07:41.448Z,15.48
2023-05-14T08:10:08.619Z,15.47
2023-05-14T08:12:35.336Z,15.81
2023-05-14T08:15:02.496Z,16.25
2023-05-14T08:17:29.186Z,16.11
2023-05-14T08:19:55.704Z,16.39
2023-05-14T08:22:22.420Z,16.59
2023-05-14T08:24:49.006Z,16.66
2023-05-14T08:27:16.669Z,16.71
2023-05-14T08:29:43.254Z,17.19
2023-05-14T08:32:22.205Z,17.33
2023-05-14T08:34:50.793Z,17.74
2023-05-14T08:37:17.340Z,18.38
2023-05-14T08:39:43.849Z,17.81
2023-05-14T08:42:13.046Z,18.04
2023-05-14T08:44:48.328Z,17.59
2023-05-14T08:47:16.138Z,17.27
2023-05-14T08:49:45.367Z,16.99
2023-05-14T08:52:13.074Z,16.95
2023-05-14T08:54:40.887Z,16.91
2023-05-14T08:57:10.375Z,16.96
2023-05-14T08:59:37.547Z,16.86
2023-05-14T09:02:06.376Z,16.83
2023-05-14T09:04:34.559Z,17.19
2023-05-14T09:07:02.619Z,17.64
2023-05-14T09:09:29.654Z,17.82
2023-05-14T09:11:56.183Z,17.72
2023-05-14T09:14:25.638Z,18.59
2023-05-14T09:16:52.542Z,19.41
2023-05-14T09:19:20.805Z,19.81
2023-05-14T09:21:49.086Z,20.49
2023-05-14T09:24:22.714Z,19.91
2023-05-14T09:26:57.166Z,20.28
2023-05-14T09:29:29.050Z,20.75
2023-05-14T09:31:57.204Z,20.74
2023-05-14T09:34:35.145Z,21.32
2023-05-14T09:37:07.604Z,22.15
2023-05-14T09:39:38.842Z,22.61
2023-05-14T09:42:05.975Z,22.74
2023-05-14T09:44:32.748Z,22.81
2023-05-14T09:46:59.351Z,22.31
2023-05-14T09:49:26.065Z,21.77
2023-05-14T09:51:52.826Z,21.21
2023-05-14T09:54:19.517Z,21.46
2023-05-14T09:56:46.218Z,21.87
2023-05-14T09:59:13.092Z,21.98
2023-05-14T10:01:42.925Z,22.40
2023-05-14T10:04:11.227Z,22.77
2023-05-14T10:06:39.557Z,22.59
2023-05-14T10:09:12.715Z,22.71
2023-05-14T10:11:43.896Z,22.71
2023-05-14T10:14:33.621Z,22.99
2023-05-14T10:17:01.714Z,22.55
2023-05-14T10:19:33.212Z,23.01
2023-05-14T10:22:05.167Z,22.82
2023-05-14T10:24:32.676Z,23.27
2023-05-14T10:26:59.352Z,23.41
2023-05-14T10:29:34.653Z,23.55
2023-05-14T10:32:06.178Z,23.89
2023-05-14T10:34:38.497Z,23.50
2023-05-14T10:37:09.306Z,23.33
2023-05-14T10:39:50.917Z,23.18
2023-05-14T10:42:20.429Z,23.51
2023-05-14T10:45:05.953Z,23.72
2023-05-14T10:47:33.230Z,23.55
2023-05-14T10:50:03.482Z,23.57
2023-05-14T10:52:31.031Z,23.63
2023-05-14T10:55:07.766Z,23.49
2023-05-14T10:57:37.829Z,23.76
2023-05-14T11:00:09.986Z,23.91
2023-05-14T11:02:41.461Z,24.20
2023-05-14T11:05:11.745Z,24.09
2023-05-14T11:07:42.108Z,24.11
2023-05-14T11:10:11.234Z,24.51
2023-05-14T11:12:40.669Z,24.31
2023-05-14T11:15:09.589Z,24.38
2023-05-14T11:17:37.725Z,24.31
2023-05-14T11:20:08.202Z,24.55
2023-05-14T11:22:36.610Z,24.27
2023-05-14T11:25:03.669Z,24.06
2023-05-14T11:27:31.220Z,24.04
2023-05-14T11:29:58.172Z,24.32
2023-05-14T11:32:25.845Z,24.40
2023-05-14T11:34:52.607Z,24.29
2023-05-14T11:37:20.393Z,24.48
2023-05-14T11:39:49.332Z,24.00
2023-05-14T11:42:18.630Z,24.00
2023-05-14T11:44:54.099Z,24.05
2023-05-14T11:47:22.221Z,23.90
2023-05-14T11:49:49.650Z,24.10
2023-05-14T11:52:19.550Z,24.02
2023-05-14T11:54:46.532Z,24.13
2023-05-14T11:57:16.443Z,24.39
2023-05-14T11:59:43.717Z,24.39
2023-05-14T12:02:12.813Z,24.57
2023-05-14T12:04:40.218Z,24.43
2023-05-14T12:07:11.968Z,24.46
2023-05-14T12:09:48.958Z,24.25
2023-05-14T12:12:18.725Z,23.94
2023-05-14T12:14:45.712Z,24.08
2023-05-14T12:17:16.518Z,23.88
2023-05-14T12:19:44.243Z,24.05
2023-05-14T12:22:12.096Z,24.25
2023-05-14T12:24:39.263Z,24.44
2023-05-14T12:27:07.269Z,23.72
2023-05-14T12:29:39.674Z,24.21
2023-05-14T12:32:11.109Z,24.40
2023-05-14T12:34:38.246Z,24.53
2023-05-14T12:37:06.315Z,24.51
2023-05-14T12:39:34.206Z,24.40
2023-05-14T12:42:01.322Z,24.07
2023-05-14T12:44:28.536Z,24.08
2023-05-14T12:46:55.480Z,23.93
2023-05-14T12:49:22.065Z,23.65
2023-05-14T12:51:50.057Z,23.87
2023-05-14T12:54:17.728Z,23.61
2023-05-14T12:56:44.384Z,23.33
2023-05-14T12:59:11.135Z,23.14
2023-05-14T13:01:38.397Z,22.66
2023-05-14T13:04:05.824Z,22.27
2023-05-14T13:06:32.771Z,22.33
2023-05-14T13:09:01.734Z,22.10
2023-05-14T13:11:30.450Z,21.92
2023-05-14T13:13:57.072Z,21.85
2023-05-14T13:16:23.731Z,21.32
2023-05-14T13:18:50.480Z,20.99
2023-05-14T13:21:17.276Z,20.68
2023-05-14T13:23:43.816Z,20.38
2023-05-14T13:26:17.022Z,20.63
2023-05-14T13:28:43.570Z,20.63
2023-05-14T13:31:12.661Z,20.42
2023-05-14T13:33:42.456Z,20.26
2023-05-14T13:36:10.564Z,20.54
2023-05-14T13:38:37.982Z,20.32
2023-05-14T13:41:07.644Z,20.34
2023-05-14T13:43:35.889Z,20.58
2023-05-14T13:46:04.321Z,20.27
2023-05-14T13:48:33.833Z,19.77
2023-05-14T13:51:00.732Z,19.51
2023-05-14T13:53:27.406Z,19.10
2023-05-14T13:55:56.669Z,18.83
2023-05-14T13:58:25.596Z,18.74
2023-05-14T14:00:53.237Z,18.48
2023-05-14T14:03:20.174Z,18.32
2023-05-14T14:05:46.900Z,18.29
2023-05-14T14:10:48.615Z,18.07
2023-05-14T14:13:15.267Z,18.09
2023-05-14T14:15:42.625Z,18.21
2023-05-14T14:18:10.172Z,17.83
2023-05-14T14:20:37.074Z,18.03
2023-05-14T14:23:03.656Z,18.08
2023-05-14T14:25:30.656Z,18.03
2023-05-14T14:27:57.448Z,18.27
2023-05-14T14:30:24.015Z,18.33
2023-05-14T14:32:50.981Z,18.35
2023-05-14T14:35:19.782Z,18.56
2023-05-14T14:37:52.382Z,18.68
2023-05-14T14:40:19.022Z,18.21
2023-05-14T14:42:46.683Z,18.13
2023-05-14T14:45:15.195Z,17.80
2023-05-14T14:47:46.873Z,17.92
2023-05-14T14:50:13.672Z,17.76
2023-05-14T14:52:46.202Z,17.79
2023-05-14T14:55:13.119Z,17.95
2023-05-14T14:57:39.927Z,17.87
2023-05-14T15:00:07.490Z,17.95
2023-05-14T15:02:34.857Z,17.68
2023-05-14T15:05:01.577Z,17.77
2023-05-14T15:07:29.622Z,17.81
2023-05-14T15:09:56.152Z,17.75
2023-05-14T15:12:22.644Z,17.81
2023-05-14T15:14:49.136Z,17.80
2023-05-14T15:17:15.756Z,17.65
2023-05-14T15:19:42.448Z,17.66
2023-05-14T15:22:09.055Z,17.24
2023-05-14T15:24:35.834Z,17.45
2023-05-14T15:27:02.490Z,17.10
2023-05-14T15:29:29.085Z,17.11
2023-05-14T15:31:55.845Z,17.03
2023-05-14T15:34:22.373Z,16.82
2023-05-14T15:36:48.915Z,16.62
2023-05-14T15:39:15.495Z,16.52
2023-05-14T15:41:42.132Z,16.53
2023-05-14T15:44:08.765Z,16.53
2023-05-14T15:46:35.773Z,16.48
2023-05-14T15:49:02.397Z,16.26
2023-05-14T15:51:29.074Z,16.05
2023-05-14T15:53:55.670Z,16.01
2023-05-14T15:56:22.952Z,15.99
2023-05-14T15:58:49.860Z,15.94
2023-05-14T16:01:16.665Z,15.90
2023-05-14T16:03:45.486Z,15.98
2023-05-14T16:06:12.420Z,15.84
2023-05-14T16:08:38.911Z,15.86
2023-05-14T16:11:06.431Z,15.91
2023-05-14T16:13:33.500Z,16.02
2023-05-14T16:16:00.238Z,16.09
2023-05-14T16:18:26.882Z,15.97
2023-05-14T16:20:53.634Z,15.96
2023-05-14T16:23:20.243Z,15.98
2023-05-14T16:25:46.848Z,15.98
2023-05-14T16:28:13.631Z,15.93
2023-05-14T16:30:40.240Z,15.89
2023-05-14T16:33:06.868Z,15.98
2023-05-14T16:35:33.568Z,15.97
2023-05-14T16:38:00.149Z,15.97
2023-05-14T16:40:26.801Z,15.99
2023-05-14T16:42:53.379Z,16.08
2023-05-14T16:45:19.841Z,15.82
2023-05-14T16:47:46.385Z,15.73
2023-05-14T16:50:13.188Z,15.55
2023-05-14T16:52:39.771Z,15.44
2023-05-14T16:55:06.639Z,15.32
2023-05-14T16:57:34.317Z,15.22
2023-05-14T17:00:01.230Z,15.10
2023-05-14T17:02:27.845Z,14.98
2023-05-14T17:04:55.379Z,14.93
2023-05-14T17:07:22.188Z,15.07
2023-05-14T17:09:48.755Z,14.98
2023-05-14T17:12:15.456Z,14.89
2023-05-14T17:14:42.046Z,14.93
2023-05-14T17:17:08.728Z,14.79
2023-05-14T17:19:35.351Z,14.70
2023-05-14T17:22:01.913Z,14.71
2023-05-14T17:24:28.569Z,14.49
2023-05-14T17:26:55.080Z,14.39
2023-05-14T17:29:21.650Z,14.32
2023-05-14T17:31:48.726Z,14.19
2023-05-14T17:34:15.530Z,14.06
2023-05-14T17:36:42.086Z,14.07
2023-05-14T17:39:09.137Z,14.07
2023-05-14T17:41:35.653Z,14.04
2023-05-14T17:44:02.222Z,13.96
2023-05-14T17:46:28.833Z,13.87
2023-05-14T17:48:55.403Z,13.83
2023-05-14T17:51:22.012Z,13.76
2023-05-14T17:53:48.621Z,13.67
2023-05-14T17:56:17.571Z,13.64
2023-05-14T17:58:45.398Z,13.58
2023-05-14T18:01:12.122Z,13.48
2023-05-14T18:03:38.799Z,13.36
2023-05-14T18:06:05.825Z,13.17
2023-05-14T18:08:32.297Z,12.99
2023-05-14T18:11:01.014Z,12.88
2023-05-14T18:13:27.645Z,12.78
2023-05-14T18:15:56.459Z,12.60
2023-05-14T18:18:23.988Z,12.44
2023-05-14T18:20:52.099Z,12.32
2023-05-14T18:23:18.796Z,12.17
2023-05-14T18:25:46.035Z,12.12
2023-05-14T18:28:13.088Z,11.95
2023-05-14T18:30:39.922Z,11.85
2023-05-14T18:33:06.775Z,11.74
2023-05-14T18:35:33.462Z,11.74
2023-05-14T18:38:00.173Z,11.64
2023-05-14T18:40:26.714Z,11.56
2023-05-14T18:42:53.432Z,11.50
2023-05-14T18:45:20.294Z,11.43
2023-05-14T18:47:47.934Z,11.37
2023-05-14T18:50:14.572Z,11.33
2023-05-14T18:52:41.186Z,11.30
2023-05-14T18:55:08.435Z,11.18
2023-05-14T18:57:37.070Z,11.12
2023-05-14T19:00:05.145Z,11.11
2023-05-14T19:02:31.784Z,11.02
2023-05-14T19:04:59.057Z,11.02
2023-05-14T19:07:27.213Z,10.95
2023-05-14T19:09:53.746Z,10.95
2023-05-14T19:12:20.251Z,10.92
2023-05-14T19:14:46.730Z,10.87
2023-05-14T19:17:13.273Z,10.79
2023-05-14T19:19:39.804Z,10.73
2023-05-14T19:22:06.760Z,10.64
2023-05-14T19:24:33.400Z,10.58
2023-05-14T19:27:00.011Z,10.45
2023-05-14T19:29:26.567Z,10.38
2023-05-14T19:31:53.153Z,10.32
2023-05-14T19:34:19.782Z,10.23
2023-05-14T19:36:46.415Z,10.11
2023-05-14T19:39:12.962Z,10.02
2023-05-14T19:41:39.479Z,9.94
2023-05-14T19:44:05.981Z,9.85
2023-05-14T19:46:32.651Z,9.78
2023-05-14T19:48:59.208Z,9.70
2023-05-14T19:51:25.729Z,9.63
2023-05-14T19:53:52.303Z,9.58
2023-05-14T19:56:21.808Z,9.53
2023-05-14T19:58:48.541Z,9.52
2023-05-14T20:01:15.236Z,9.52
2023-05-14T20:03:41.891Z,9.49
2023-05-14T20:06:08.566Z,9.45
2023-05-14T20:08:35.112Z,9.41
2023-05-14T20:11:01.934Z,9.40
2023-05-14T20:13:31.771Z,9.38
2023-05-14T20:15:58.759Z,9.36
2023-05-14T20:18:25.509Z,9.37
2023-05-14T20:20:52.036Z,9.33
2023-05-14T20:23:18.665Z,9.29
2023-05-14T20:25:45.201Z,9.28
2023-05-14T20:28:11.931Z,9.26
2023-05-14T20:30:38.479Z,9.24
2023-05-14T20:33:05.040Z,9.23
2023-05-14T20:35:31.535Z,9.18
2023-05-14T20:37:58.616Z,9.05
2023-05-14T20:40:25.414Z,8.97
2023-05-14T20:42:52.251Z,9.00
2023-05-14T20:45:19.074Z,8.96
2023-05-14T20:47:45.628Z,8.94
2023-05-14T20:50:13.713Z,8.99
2023-05-14T20:52:40.506Z,8.98
2023-05-14T20:55:08.172Z,8.96
2023-05-14T20:57:34.710Z,8.92
2023-05-14T21:00:02.424Z,8.92
2023-05-14T21:02:29.143Z,8.89
2023-05-14T21:04:55.872Z,8.91
2023-05-14T21:07:22.421Z,8.92
2023-05-14T21:09:52.341Z,8.91
2023-05-14T21:12:19.618Z,8.91
2023-05-14T21:14:46.401Z,8.95
2023-05-14T21:17:12.916Z,9.00
2023-05-14T21:19:39.625Z,9.07
2023-05-14T21:22:06.801Z,9.07
2023-05-14T21:24:33.270Z,9.07
2023-05-14T21:26:59.940Z,9.09
2023-05-14T21:29:26.587Z,9.08
2023-05-14T21:31:53.120Z,9.10
2023-05-14T21:34:19.843Z,9.09
2023-05-14T21:36:47.011Z,9.07
2023-05-14T21:39:13.889Z,9.02
2023-05-14T21:41:40.504Z,8.99
2023-05-14T21:44:07.001Z,8.97
2023-05-14T21:46:33.824Z,8.94
2023-05-14T21:49:00.563Z,8.93
2023-05-14T21:51:27.310Z,8.93
2023-05-14T21:53:53.829Z,8.90
2023-05-14T21:56:21.083Z,8.83
2023-05-14T21:58:47.593Z,8.79
2023-05-14T22:01:14.238Z,8.78
2023-05-14T22:03:40.773Z,8.75
2023-05-14T22:06:07.453Z,8.79
2023-05-14T22:08:34.180Z,8.73
2023-05-14T22:11:00.743Z,8.70
2023-05-14T22:13:27.252Z,8.64
2023-05-14T22:16:01.396Z,8.61
2023-05-14T22:18:36.617Z,8.55
2023-05-14T22:21:03.728Z,8.55
2023-05-14T22:23:30.249Z,8.51
2023-05-14T22:25:57.425Z,8.50
2023-05-14T22:28:23.989Z,8.48
2023-05-14T22:30:50.477Z,8.47
2023-05-14T22:33:16.970Z,8.43
2023-05-14T22:35:43.584Z,8.47
2023-05-14T22:38:10.076Z,8.50
2023-05-14T22:40:36.576Z,8.55
2023-05-14T22:43:03.113Z,8.57
2023-05-14T22:45:30.610Z,8.59
2023-05-14T22:47:57.097Z,8.69
2023-05-14T22:50:23.684Z,8.69
2023-05-14T22:52:50.173Z,8.75
2023-05-14T22:55:16.693Z,8.80
2023-05-14T22:57:43.400Z,8.81
2023-05-14T23:00:11.141Z,8.87
2023-05-14T23:02:37.697Z,8.90
2023-05-14T23:05:04.523Z,8.93
2023-05-14T23:07:31.220Z,8.97
2023-05-14T23:09:57.744Z,8.98
2023-05-14T23:12:24.250Z,8.98
2023-05-14T23:14:50.806Z,9.00
2023-05-14T23:17:17.979Z,9.03
2023-05-14T23:19:44.576Z,9.01
2023-05-14T23:22:11.132Z,8.99
2023-05-14T23:24:37.583Z,8.96
2023-05-14T23:27:04.119Z,8.93
2023-05-14T23:29:30.698Z,8.89
2023-05-14T23:31:57.191Z,8.83
2023-05-14T23:34:23.736Z,8.79
2023-05-14T23:36:50.734Z,8.70
2023-05-14T23:39:17.425Z,8.66
2023-05-14T23:41:43.966Z,8.62
2023-05-14T23:44:10.445Z,8.57
2023-05-14T23:46:37.149Z,8.47
2023-05-14T23:49:03.908Z,8.44
2023-05-14T23:51:30.516Z,8.31
2023-05-14T23:53:58.658Z,8.19
2023-05-14T23:56:26.213Z,8.15
2023-05-14T23:58:52.926Z,8.08
